SHASTA DAM (USBR) (SHA)

Elevation: 1067' · SACRAMENTO R basin · Operator: US Bureau of Reclamation

Provisional data, subject to change.
Query executed Thursday at 15:54:41   clock

Select a sensor type for a plot of data.
Note: Reservoir Flows are daily averages.

Earlier

Date RES ELE    STORAGE    RES CHG    TOC STO    ABV TOC    OUTFLOW    INFLOW    EVAP    FNF    RIV REL    PPT INC    RAIN    SPILL    DIS PWR   
 FEET   AF   AF   AF   AF   CFS   CFS   CFS   CFS   CFS   INCHES   INCHES   CFS   CFS  
07/01/2015 968.24 2193789 -4391 4552100 -2358311 5034 2981 161 2512 0 0.00 49.43 0 5034
07/02/2015 967.92 2187944 -5845 4552100 -2364156 5391 2600 156 2201 0 0.00 49.43 0 5391
07/03/2015 967.50 2180305 -7639 4552100 -2371795 5725 2115 241 2497 0 0.00 49.43 0 5725
07/04/2015 967.04 2171938 -8367 4552100 -2380162 6337 2279 160 2522 0 0.00 49.43 0 6337
07/05/2015 966.57 2163434 -8504 4552100 -2388666 5909 1819 197 2379 0 0.00 49.43 0 5909
07/06/2015 966.08 2154574 -8860 4552100 -2397526 5945 1712 234 2334 0 0.00 49.43 0 5945
07/07/2015 965.62 2146296 -8278 4552100 -2405804 5617 1629 185 2365 0 0.00 49.43 0 5617
07/08/2015 965.18 2138386 -7910 4552100 -2413714 5863 2081 206 2800 0 0.00 49.43 0 5863
07/09/2015 964.80 2131576 -6810 4552100 -2420524 5457 2129 105 2418 0 0.35 49.78 0 5457
07/10/2015 964.38 2124069 -7507 4552100 -2428031 5768 2109 126 2417 0 0.01 49.79 0 5768
07/11/2015 963.95 2116390 -7679 4552100 -2435710 6037 2245 79 2281 0 0.00 49.79 0 6037
07/12/2015 963.55 2109282 -- 4552100 -2442818 6229 2744 99 2665 0 0.00 49.79 0 6229
07/13/2015 963.16 2102353 -6929 4552100 -2449747 5849 2513 157 2218 0 0.00 49.79 0 5849
07/14/2015 962.74 2094917 -7436 4552100 -2457183 6111 2544 182 2401 0 0.00 49.79 0 6111
07/15/2015 962.38 2088558 -6359 4552100 -2463542 5731 2733 208 2506 0 0.00 49.79 0 5731
07/16/2015 962.01 2082022 -6536 4552100 -2470078 5693 2616 218 2339 0 0.00 49.79 0 5693
07/17/2015 961.65 2075699 -6323 4552100 -2476401 5749 2794 233 2327 0 0.00 49.79 0 5749
07/18/2015 961.33 2070080 -5619 4552100 -2482020 5895 3253 191 2323 0 0.00 49.79 0 5895
07/19/2015 961.06 2065339 -4741 4552100 -2486761 5001 2843 232 2409 0 0.00 49.79 0 5001
07/20/2015 960.67 2058525 -6814 4552100 -2493575 5965 2762 232 2355 0 0.00 49.79 0 5965
07/21/2015 960.34 2052764 -5761 4552100 -2499336 4840 2131 195 2331 0 0.00 49.79 0 4840
07/22/2015 959.90 2045084 -7680 4552100 -2507016 5368 1691 195 2410 e 0 -- 49.79 0 5368
07/23/2015 959.48 2037756 -7328 4552100 -2514344 5693 2219 220 2491 0 0.00 49.79 0 5693
07/24/2015 959.10 2031126 -6630 4552100 -2520974 5240 2030 133 2390 0 0.00 49.79 0 5240
07/25/2015 958.67 2023657 -7469 4552100 -2528443 5240 1637 163 2216 0 0.00 49.79 0 5240
07/26/2015 958.23 2016026 -7631 4552100 -2536074 5583 1929 193 2083 0 0.00 49.79 0 5583
07/27/2015 957.79 2008416 -7610 4552100 -2543684 5559 1935 213 2311 0 0.00 49.79 0 5559
07/28/2015 957.58 2004796 -3620 4552100 -2547304 5280 3647 192 2355 0 0.00 49.79 0 5280
07/29/2015 957.28 1999623 -5173 4552100 -2552477 6057 3676 227 2306 0 0.00 49.79 0 6057
07/30/2015 -- -- -- -- -- -- -- -- -- -- -- -- -- --

Later | Latest

Warning! This data is preliminary and subject to revision.

Show SHA Map | Plot SHA Data | 1 Month SHA Data | Real-Time SHA Data | SHA Info